Time;durP1;ratioP1;P1;durP2;ratioP2;P2;SDS_P1;SDS_P2;PMS_P1;PMS_P2;Temp;Humidity;BMP_temperature;BMP_pressure;BME280_temperature;BME280_humidity;BME280_pressure;Samples;Min_cycle;Max_cycle;Signal;HPM_P1;HPM_P2
2022/04/07 00:01:41;;;;;;;2.45;0.85;;;14.60;55.20;;;;;;2403755;52;21002;-82
2022/04/07 00:04:08;;;;;;;2.28;0.90;;;14.60;55.40;;;;;;2662252;52;20966;-82
2022/04/07 00:06:34;;;;;;;1.87;0.80;;;14.60;55.30;;;;;;2658895;52;20962;-82
2022/04/07 00:09:03;;;;;;;2.17;0.80;;;14.60;55.30;;;;;;2661092;52;21968;-81
2022/04/07 00:11:30;;;;;;;1.35;0.62;;;14.60;55.20;;;;;;2662491;52;21480;-81
2022/04/07 00:13:56;;;;;;;1.75;0.70;;;14.60;55.20;;;;;;2642942;51;21940;-82
2022/04/07 00:16:23;;;;;;;1.70;0.70;;;14.60;55.20;;;;;;2649428;51;21840;-82
2022/04/07 00:18:49;;;;;;;2.55;0.75;;;14.60;55.20;;;;;;2403783;52;21001;-81
2022/04/07 00:21:24;;;;;;;1.52;0.70;;;14.60;55.10;;;;;;2400489;52;20971;-81
2022/04/07 00:23:54;;;;;;;1.98;0.82;;;14.60;55.10;;;;;;2402731;52;20915;-82
2022/04/07 00:26:20;;;;;;;1.90;0.80;;;14.60;55.10;;;;;;2404749;52;20939;-82
2022/04/07 00:28:46;;;;;;;1.70;0.80;;;14.70;55.20;;;;;;2662232;52;20991;-82
2022/04/07 00:31:12;;;;;;;1.60;0.70;;;14.60;55.10;;;;;;2403546;52;20907;-82
2022/04/07 00:33:39;;;;;;;1.95;0.70;;;14.60;55.10;;;;;;2403664;52;21058;-82
2022/04/07 00:36:05;;;;;;;2.28;0.60;;;14.60;55.10;;;;;;2662202;52;20967;-81
2022/04/07 00:38:31;;;;;;;1.75;0.70;;;14.60;55.10;;;;;;2661339;52;20954;-82
2022/04/07 00:40:58;;;;;;;2.05;0.90;;;14.60;55.10;;;;;;2662568;52;21007;-83
2022/04/07 00:43:31;;;;;;;1.42;0.60;;;14.60;55.10;;;;;;2403261;52;20995;-82
2022/04/07 00:45:58;;;;;;;1.62;0.70;;;14.60;55.10;;;;;;2629443;51;20953;-83
2022/04/07 00:48:25;;;;;;;1.23;0.70;;;14.60;55.10;;;;;;2398530;52;21014;-81
2022/04/07 00:50:51;;;;;;;1.70;0.73;;;14.50;54.90;;;;;;2651060;51;20979;-82
2022/04/07 00:53:18;;;;;;;1.62;0.60;;;14.50;54.90;;;;;;2402603;52;20923;-82
2022/04/07 00:55:44;;;;;;;1.70;0.52;;;14.50;54.90;;;;;;2664058;51;20907;-81
2022/04/07 00:58:10;;;;;;;2.08;0.70;;;14.50;54.80;;;;;;2405724;53;20977;-82
2022/04/07 01:00:36;;;;;;;1.55;0.70;;;14.50;54.80;;;;;;2665028;52;20946;-81
2022/04/07 01:03:03;;;;;;;1.65;0.70;;;14.50;54.70;;;;;;2664596;52;20951;-82
2022/04/07 01:05:29;;;;;;;1.40;0.65;;;14.40;54.60;;;;;;2664662;52;20939;-83
2022/04/07 01:07:55;;;;;;;1.35;0.57;;;14.40;54.50;;;;;;2405630;53;20942;-81
2022/04/07 01:10:21;;;;;;;1.30;0.50;;;14.40;54.40;;;;;;2664647;52;20914;-82
2022/04/07 01:12:48;;;;;;;1.58;0.70;;;14.40;54.40;;;;;;2659751;52;21067;-81
2022/04/07 01:15:14;;;;;;;3.15;0.60;;;14.40;54.20;;;;;;2385157;53;20906;-82
2022/04/07 01:17:41;;;;;;;1.02;0.50;;;14.40;54.00;;;;;;2664657;52;21193;-82
2022/04/07 01:20:08;;;;;;;1.58;0.50;;;14.40;53.80;;;;;;2664128;52;20938;-82
2022/04/07 01:22:40;;;;;;;1.52;0.55;;;14.40;53.80;;;;;;2663552;52;21026;-82
2022/04/07 01:25:09;;;;;;;0.88;0.40;;;14.40;53.30;;;;;;2405533;52;20930;-82
2022/04/07 01:27:35;;;;;;;1.60;0.40;;;14.30;53.10;;;;;;2664811;52;20923;-82
2022/04/07 01:30:07;;;;;;;1.15;0.40;;;14.30;53.00;;;;;;2405209;53;21872;-81
2022/04/07 01:32:50;;;;;;;0.85;0.40;;;14.30;52.90;;;;;;2662546;52;20931;-82
2022/04/07 01:35:17;;;;;;;1.60;0.40;;;14.30;52.70;;;;;;2403556;52;22091;-81
2022/04/07 01:37:45;;;;;;;0.43;0.28;;;14.30;52.70;;;;;;2393776;53;21019;-82
2022/04/07 01:40:13;;;;;;;0.90;0.30;;;14.30;52.70;;;;;;2661511;51;20994;-82
2022/04/07 01:42:39;;;;;;;0.95;0.40;;;14.30;52.60;;;;;;2660298;52;20990;-82
2022/04/07 01:45:06;;;;;;;1.02;0.40;;;14.20;52.50;;;;;;2635374;51;20980;-82
2022/04/07 01:47:36;;;;;;;1.05;0.40;;;14.20;52.40;;;;;;2404151;53;21317;-82
2022/04/07 01:50:07;;;;;;;1.33;0.60;;;14.20;52.40;;;;;;2404995;52;21003;-82
2022/04/07 01:52:37;;;;;;;1.42;0.50;;;14.20;52.30;;;;;;2404549;52;21031;-81
2022/04/07 01:55:04;;;;;;;0.90;0.47;;;14.20;52.20;;;;;;2664532;52;20895;-82
2022/04/07 01:57:31;;;;;;;1.20;0.47;;;14.20;52.30;;;;;;2664655;52;20867;-82
2022/04/07 01:59:57;;;;;;;1.25;0.57;;;14.20;52.30;;;;;;2664800;52;21294;-82
2022/04/07 02:02:24;;;;;;;1.52;0.50;;;14.10;52.30;;;;;;2405988;52;20911;-82
2022/04/07 02:04:58;;;;;;;1.02;0.50;;;14.10;52.40;;;;;;2405866;53;20993;-83
2022/04/07 02:07:31;;;;;;;1.90;0.80;;;14.10;52.50;;;;;;2665231;52;20907;-82
2022/04/07 02:09:57;;;;;;;2.53;0.80;;;14.10;52.60;;;;;;2634420;52;20923;-81
2022/04/07 02:12:25;;;;;;;1.35;0.50;;;14.10;52.60;;;;;;2664672;52;21878;-82
2022/04/07 02:14:51;;;;;;;2.75;0.80;;;14.00;52.70;;;;;;2405387;52;20883;-82
2022/04/07 02:17:20;;;;;;;2.33;0.70;;;14.00;52.70;;;;;;2664640;52;20926;-83
2022/04/07 02:19:51;;;;;;;1.67;0.60;;;14.00;52.80;;;;;;2664289;52;20931;-81
2022/04/07 02:22:18;;;;;;;2.65;0.82;;;14.00;52.80;;;;;;2405661;53;21453;-81
2022/04/07 02:24:46;;;;;;;1.30;0.60;;;14.00;52.90;;;;;;2405593;53;20966;-82
2022/04/07 02:27:12;;;;;;;2.60;0.73;;;14.00;52.90;;;;;;2406046;53;20923;-82
2022/04/07 02:29:39;;;;;;;2.10;0.82;;;14.00;53.00;;;;;;2647553;51;20925;-82
2022/04/07 02:32:05;;;;;;;1.48;0.62;;;14.00;53.00;;;;;;2651645;51;20911;-81
2022/04/07 02:34:32;;;;;;;2.25;0.90;;;14.00;53.00;;;;;;2664704;52;20914;-82
2022/04/07 02:36:58;;;;;;;1.70;0.70;;;14.00;53.10;;;;;;2651004;51;21825;-82
2022/04/07 02:39:24;;;;;;;2.83;1.02;;;14.00;53.10;;;;;;2406821;52;21000;-80
2022/04/07 02:41:51;;;;;;;2.58;0.90;;;13.90;53.10;;;;;;2664243;51;20998;-82
2022/04/07 02:44:18;;;;;;;2.28;0.70;;;13.90;53.10;;;;;;2664707;52;20931;-82
2022/04/07 02:46:44;;;;;;;3.45;1.08;;;13.90;53.10;;;;;;2664630;52;21053;-82
2022/04/07 02:49:10;;;;;;;2.05;0.70;;;13.90;53.20;;;;;;2406071;52;20980;-82
2022/04/07 02:51:37;;;;;;;2.35;0.80;;;13.90;53.20;;;;;;2663803;52;20951;-82
2022/04/07 02:54:03;;;;;;;3.17;1.00;;;13.90;53.20;;;;;;2664591;52;20923;-82
2022/04/07 02:56:29;;;;;;;2.47;0.85;;;13.90;53.10;;;;;;2664991;52;20999;-82
2022/04/07 02:58:56;;;;;;;2.05;0.85;;;13.90;53.10;;;;;;2664494;52;20876;-82
2022/04/07 03:01:25;;;;;;;2.50;0.90;;;13.90;53.10;;;;;;2664333;52;20891;-83
2022/04/07 03:03:55;;;;;;;3.90;1.00;;;13.90;53.20;;;;;;2405207;52;20918;-81
2022/04/07 03:06:22;;;;;;;2.10;0.82;;;13.80;53.10;;;;;;2405910;53;20986;-83
2022/04/07 03:08:49;;;;;;;5.18;1.05;;;13.80;53.10;;;;;;2664812;52;21489;-81
2022/04/07 03:11:15;;;;;;;1.87;0.77;;;13.80;53.90;;;;;;2665630;52;20958;-82
2022/04/07 03:13:41;;;;;;;2.62;0.82;;;13.80;53.30;;;;;;2405821;53;20980;-82
2022/04/07 03:16:08;;;;;;;2.17;0.80;;;13.70;53.30;;;;;;2665166;52;20936;-83
2022/04/07 03:18:34;;;;;;;1.65;0.60;;;13.70;53.30;;;;;;2406170;52;20959;-82
2022/04/07 03:21:00;;;;;;;1.77;0.65;;;13.70;53.30;;;;;;2406275;53;20947;-81
2022/04/07 03:23:26;;;;;;;3.60;0.80;;;13.70;53.90;;;;;;2406207;53;20919;-81
2022/04/07 03:25:53;;;;;;;1.73;0.55;;;13.70;53.30;;;;;;2406515;52;21229;-82
2022/04/07 03:28:19;;;;;;;1.60;0.70;;;13.70;53.40;;;;;;2665244;52;20923;-81
2022/04/07 03:30:46;;;;;;;1.50;0.60;;;13.60;53.40;;;;;;2664697;52;20931;-82
2022/04/07 03:33:12;;;;;;;2.62;0.77;;;13.60;53.40;;;;;;2664364;52;20911;-82
2022/04/07 03:35:39;;;;;;;1.27;0.50;;;13.60;53.40;;;;;;2663769;52;20935;-82
2022/04/07 03:38:05;;;;;;;1.12;0.55;;;13.60;53.40;;;;;;2665028;52;20955;-81
2022/04/07 03:40:34;;;;;;;2.58;0.90;;;13.60;53.50;;;;;;2404586;53;20915;-81
2022/04/07 03:43:01;;;;;;;2.12;0.70;;;13.60;53.60;;;;;;2644527;52;20954;-80
2022/04/07 03:45:29;;;;;;;1.95;0.80;;;13.60;53.70;;;;;;2625743;51;20926;-81
2022/04/07 03:47:55;;;;;;;1.45;0.55;;;13.60;53.70;;;;;;2395268;53;21937;-81
2022/04/07 03:50:21;;;;;;;1.77;0.50;;;13.60;53.80;;;;;;2653156;52;21375;-80
2022/04/07 03:52:47;;;;;;;2.25;0.60;;;13.50;53.60;;;;;;2396012;52;21476;-82
2022/04/07 03:55:14;;;;;;;1.42;0.50;;;13.50;53.60;;;;;;2652946;52;21014;-82
2022/04/07 03:57:40;;;;;;;1.42;0.75;;;13.50;53.70;;;;;;2653088;52;20931;-81
2022/04/07 04:00:07;;;;;;;2.00;0.90;;;13.50;53.70;;;;;;2396208;52;20923;-81
2022/04/07 04:02:33;;;;;;;2.28;0.85;;;13.50;53.70;;;;;;2396020;53;21050;-81
2022/04/07 04:05:00;;;;;;;2.05;0.80;;;13.50;53.90;;;;;;2652906;52;20959;-81
2022/04/07 04:07:26;;;;;;;1.10;0.50;;;13.50;53.80;;;;;;2634724;51;20941;-81
2022/04/07 04:09:52;;;;;;;1.58;0.60;;;13.50;53.90;;;;;;2641434;51;21594;-80
2022/04/07 04:12:19;;;;;;;2.17;0.80;;;13.50;53.90;;;;;;2651816;52;20946;-81
2022/04/07 04:14:45;;;;;;;1.45;0.60;;;13.50;54.00;;;;;;2393828;52;22083;-82
2022/04/07 04:17:12;;;;;;;1.70;0.60;;;13.50;54.10;;;;;;2394150;52;21007;-81
2022/04/07 04:19:38;;;;;;;1.20;0.52;;;13.50;54.10;;;;;;2651405;52;20900;-80
2022/04/07 04:22:04;;;;;;;2.00;0.60;;;13.60;54.30;;;;;;2651231;52;21743;-81
2022/04/07 04:24:31;;;;;;;2.85;0.75;;;13.50;54.30;;;;;;2651715;52;21046;-81
2022/04/07 04:27:00;;;;;;;1.42;0.60;;;13.50;54.30;;;;;;2651759;52;24988;-80
2022/04/07 04:29:26;;;;;;;1.73;0.62;;;13.50;54.30;;;;;;2622699;51;20926;-84
2022/04/07 04:31:52;;;;;;;1.45;0.60;;;13.50;54.30;;;;;;2651496;52;20919;-81
2022/04/07 04:34:18;;;;;;;1.52;0.60;;;13.50;54.30;;;;;;2650895;52;20982;-81
2022/04/07 04:36:45;;;;;;;1.92;0.60;;;13.50;54.40;;;;;;2651583;52;20970;-81
2022/04/07 04:39:11;;;;;;;2.17;0.50;;;13.50;54.40;;;;;;2651415;52;20895;-80
2022/04/07 04:41:38;;;;;;;1.12;0.50;;;13.50;54.50;;;;;;2651509;52;20917;-81
2022/04/07 04:44:04;;;;;;;1.90;0.60;;;13.50;54.50;;;;;;2650704;52;21014;-80
2022/04/07 04:46:30;;;;;;;1.73;0.60;;;13.50;54.50;;;;;;2394441;53;20926;-82
2022/04/07 04:48:58;;;;;;;1.30;0.40;;;13.50;54.60;;;;;;2650742;52;20907;-81
2022/04/07 04:51:24;;;;;;;0.95;0.40;;;13.60;54.70;;;;;;2651582;52;22229;-80
2022/04/07 04:53:51;;;;;;;0.82;0.40;;;13.50;54.60;;;;;;2640252;52;20963;-81
2022/04/07 04:56:17;;;;;;;1.75;0.40;;;13.50;54.70;;;;;;2643329;52;21892;-81
2022/04/07 04:58:43;;;;;;;0.95;0.43;;;13.50;54.70;;;;;;2651886;52;21924;-84
2022/04/07 05:01:10;;;;;;;1.42;0.50;;;13.50;54.60;;;;;;2651453;52;20957;-81
2022/04/07 05:03:36;;;;;;;1.60;0.50;;;13.60;54.70;;;;;;2394200;52;21010;-81
2022/04/07 05:06:03;;;;;;;2.20;0.70;;;13.60;54.80;;;;;;2651815;52;20962;-81
2022/04/07 05:08:29;;;;;;;1.35;0.60;;;13.60;54.70;;;;;;2394337;52;21492;-80
2022/04/07 05:10:55;;;;;;;1.42;0.55;;;13.60;54.70;;;;;;2394848;52;20931;-81
2022/04/07 05:13:23;;;;;;;1.65;0.60;;;13.60;54.70;;;;;;2651164;52;20968;-81
2022/04/07 05:15:49;;;;;;;1.30;0.45;;;13.60;54.60;;;;;;2393042;52;22098;-81
2022/04/07 05:18:15;;;;;;;1.80;0.60;;;13.60;54.70;;;;;;2651450;52;20911;-82
2022/04/07 05:20:42;;;;;;;1.33;0.50;;;13.60;54.60;;;;;;2650760;52;21945;-80
2022/04/07 05:23:08;;;;;;;0.90;0.45;;;13.60;54.60;;;;;;2651114;52;20974;-81
2022/04/07 05:25:34;;;;;;;1.23;0.40;;;13.60;54.60;;;;;;2394570;52;20911;-82
2022/04/07 05:28:01;;;;;;;1.15;0.50;;;13.70;54.60;;;;;;2393657;53;20975;-78
2022/04/07 05:30:27;;;;;;;2.20;0.70;;;13.70;54.60;;;;;;2649765;52;20911;-78
2022/04/07 05:32:53;;;;;;;1.35;0.50;;;13.70;54.60;;;;;;2390953;53;20918;-79
2022/04/07 05:35:19;;;;;;;1.10;0.40;;;13.70;54.50;;;;;;2635705;51;20930;-80
2022/04/07 05:37:46;;;;;;;2.12;0.40;;;13.70;54.50;;;;;;2359121;53;20911;-79
2022/04/07 05:40:12;;;;;;;1.10;0.40;;;13.70;54.40;;;;;;2649531;52;21339;-79
2022/04/07 05:42:39;;;;;;;1.08;0.50;;;13.70;54.40;;;;;;2621245;51;20922;-78
2022/04/07 05:45:05;;;;;;;0.90;0.35;;;13.80;54.40;;;;;;2391286;53;20975;-78
2022/04/07 05:47:40;;;;;;;1.37;0.43;;;13.80;54.40;;;;;;2650410;52;20982;-78
2022/04/07 05:50:08;;;;;;;0.98;0.40;;;13.80;54.30;;;;;;2391399;52;20910;-78
2022/04/07 05:52:35;;;;;;;1.42;0.55;;;13.80;54.30;;;;;;2647611;52;20954;-78
2022/04/07 05:55:01;;;;;;;0.82;0.40;;;13.90;54.30;;;;;;2649512;52;20916;-78
2022/04/07 05:57:30;;;;;;;0.80;0.32;;;13.90;54.30;;;;;;2393827;52;20982;-82
2022/04/07 06:00:06;;;;;;;0.95;0.75;;;13.90;54.20;;;;;;2651725;52;20986;-81
2022/04/07 06:02:33;;;;;;;2.45;0.70;;;13.90;54.20;;;;;;2394665;52;20919;-80
2022/04/07 06:04:59;;;;;;;2.22;0.60;;;13.90;54.10;;;;;;2393506;53;20931;-81
2022/04/07 06:07:25;;;;;;;1.52;0.50;;;13.90;54.10;;;;;;2394948;52;21950;-79
2022/04/07 06:09:51;;;;;;;1.00;0.45;;;13.90;54.00;;;;;;2651391;52;21928;-79
2022/04/07 06:12:17;;;;;;;1.12;0.50;;;13.90;54.00;;;;;;2640095;51;21874;-79
2022/04/07 06:14:44;;;;;;;0.73;0.40;;;14.00;54.10;;;;;;2394595;53;22074;-81
2022/04/07 06:17:10;;;;;;;1.77;0.55;;;14.00;54.10;;;;;;2396568;52;20943;-80
2022/04/07 06:19:37;;;;;;;2.55;0.50;;;14.00;54.00;;;;;;2391973;52;20906;-80
2022/04/07 06:22:05;;;;;;;2.58;0.47;;;14.00;54.00;;;;;;2650969;52;20986;-80
2022/04/07 06:24:31;;;;;;;2.08;0.60;;;14.00;54.00;;;;;;2651907;52;21007;-81
2022/04/07 06:26:57;;;;;;;3.15;0.90;;;14.00;54.00;;;;;;2651724;52;21856;-79
2022/04/07 06:29:24;;;;;;;1.60;0.60;;;14.00;54.60;;;;;;2637048;51;21057;-79
2022/04/07 06:31:50;;;;;;;1.25;0.50;;;14.00;54.10;;;;;;2377667;53;20923;-80
2022/04/07 06:34:23;;;;;;;1.05;0.50;;;14.00;54.10;;;;;;2393349;52;21957;-79
2022/04/07 06:36:49;;;;;;;3.30;0.90;;;14.00;54.10;;;;;;2651212;52;20919;-80
2022/04/07 06:39:15;;;;;;;1.20;0.40;;;14.00;54.10;;;;;;2651766;52;20978;-80
2022/04/07 06:41:42;;;;;;;3.37;0.68;;;13.90;54.00;;;;;;2651182;52;20914;-81
2022/04/07 06:44:08;;;;;;;1.98;0.60;;;14.00;54.10;;;;;;2394328;52;20900;-80
2022/04/07 06:46:35;;;;;;;2.00;0.45;;;14.00;54.10;;;;;;2651196;52;20995;-79
2022/04/07 06:49:01;;;;;;;1.90;0.70;;;14.00;54.00;;;;;;2651477;52;20919;-79
2022/04/07 06:51:28;;;;;;;0.95;0.35;;;14.10;54.10;;;;;;2373868;52;21017;-80
2022/04/07 06:53:54;;;;;;;1.90;0.62;;;14.10;54.10;;;;;;2393292;52;20911;-80
2022/04/07 06:56:21;;;;;;;3.08;0.70;;;14.10;54.10;;;;;;2621578;51;20918;-81
2022/04/07 06:58:47;;;;;;;1.92;0.60;;;14.10;54.10;;;;;;2651438;52;21811;-81
2022/04/07 07:01:13;;;;;;;2.17;0.75;;;14.10;54.10;;;;;;2392246;52;21939;-81
2022/04/07 07:03:39;;;;;;;3.12;0.62;;;14.10;54.00;;;;;;2650930;52;20942;-81
2022/04/07 07:06:06;;;;;;;1.55;0.50;;;14.10;54.00;;;;;;2395193;53;20915;-82
2022/04/07 07:08:32;;;;;;;1.70;0.55;;;14.10;54.00;;;;;;2651697;52;20895;-81
2022/04/07 07:10:58;;;;;;;1.83;0.50;;;14.10;53.90;;;;;;2394535;53;20923;-81
2022/04/07 07:13:25;;;;;;;2.60;0.65;;;14.20;53.90;;;;;;2396690;52;21089;-81
2022/04/07 07:15:52;;;;;;;1.85;0.40;;;14.20;53.90;;;;;;2371672;53;21990;-81
2022/04/07 07:18:19;;;;;;;3.35;0.80;;;14.20;53.90;;;;;;2652742;52;20899;-81
2022/04/07 07:20:45;;;;;;;1.27;0.40;;;14.30;53.60;;;;;;2651694;52;20895;-81
2022/04/07 07:23:12;;;;;;;1.48;0.60;;;14.30;54.10;;;;;;2394275;53;20921;-81
2022/04/07 07:25:38;;;;;;;4.30;0.80;;;14.30;53.40;;;;;;2651782;52;20895;-81
2022/04/07 07:28:05;;;;;;;1.90;0.50;;;14.40;53.40;;;;;;2394578;52;20957;-81
2022/04/07 07:30:31;;;;;;;1.85;0.60;;;14.40;53.30;;;;;;2632587;51;20926;-79
2022/04/07 07:32:58;;;;;;;1.27;0.40;;;14.40;53.10;;;;;;2383223;52;20994;-82
2022/04/07 07:35:25;;;;;;;3.83;1.27;;;14.50;53.10;;;;;;2642888;52;20990;-81
2022/04/07 07:38:01;;;;;;;2.00;0.40;;;14.50;53.10;;;;;;2378726;52;20919;-83
2022/04/07 07:40:28;;;;;;;2.60;0.70;;;14.60;53.10;;;;;;2651718;52;20872;-82
2022/04/07 07:42:56;;;;;;;2.35;0.50;;;14.60;53.00;;;;;;2393459;52;20982;-82
2022/04/07 07:45:23;;;;;;;1.65;0.50;;;14.60;52.80;;;;;;2651009;52;21448;-80
2022/04/07 07:48:03;;;;;;;1.05;0.47;;;14.70;52.90;;;;;;2651416;52;21038;-82
2022/04/07 07:50:30;;;;;;;1.40;0.30;;;14.70;52.90;;;;;;2651428;52;20922;-81
2022/04/07 07:52:56;;;;;;;1.62;0.60;;;14.80;53.60;;;;;;2394388;52;21008;-82
2022/04/07 07:55:22;;;;;;;2.87;0.60;;;14.80;53.00;;;;;;2647395;52;20930;-83
2022/04/07 07:57:49;;;;;;;0.77;0.30;;;14.80;53.00;;;;;;2618488;52;20952;-81
2022/04/07 08:00:16;;;;;;;2.47;0.50;;;14.80;53.10;;;;;;2382994;53;21053;-82
2022/04/07 08:02:43;;;;;;;1.73;0.40;;;14.90;53.30;;;;;;2649629;51;21022;-81
2022/04/07 08:05:10;;;;;;;1.48;0.40;;;14.90;53.30;;;;;;2650129;52;21329;-84
2022/04/07 08:07:40;;;;;;;1.25;0.40;;;14.90;53.10;;;;;;2622193;51;20917;-81
2022/04/07 08:10:07;;;;;;;2.08;0.50;;;15.00;53.00;;;;;;2394269;52;20920;-82
2022/04/07 08:12:33;;;;;;;2.15;0.47;;;15.00;52.90;;;;;;2392491;52;21314;-82
2022/04/07 08:15:00;;;;;;;0.60;0.28;;;15.10;52.70;;;;;;2389311;52;21346;-81
2022/04/07 08:17:26;;;;;;;1.52;0.40;;;15.10;52.80;;;;;;2640245;52;20950;-80
2022/04/07 08:19:52;;;;;;;0.88;0.30;;;15.10;52.50;;;;;;2624162;51;20958;-80
2022/04/07 08:22:19;;;;;;;2.22;0.30;;;15.20;52.40;;;;;;2390157;53;21867;-81
2022/04/07 08:24:45;;;;;;;1.75;0.50;;;15.20;52.40;;;;;;2646091;52;20887;-81
2022/04/07 08:27:12;;;;;;;1.25;0.40;;;15.20;52.50;;;;;;2390363;53;20927;-82
2022/04/07 08:29:39;;;;;;;1.30;0.40;;;15.20;52.50;;;;;;2646828;52;21070;-81
2022/04/07 08:32:06;;;;;;;0.55;0.30;;;15.20;52.60;;;;;;2646382;52;20934;-82
2022/04/07 08:34:32;;;;;;;1.17;0.40;;;15.20;52.50;;;;;;2646395;52;20927;-81
2022/04/07 08:36:59;;;;;;;0.95;0.30;;;15.20;52.50;;;;;;2391897;52;20966;-82
2022/04/07 08:39:25;;;;;;;1.23;0.60;;;15.20;52.60;;;;;;2382299;53;22055;-81
2022/04/07 08:41:53;;;;;;;2.22;0.52;;;15.20;52.70;;;;;;2639305;51;21270;-82
2022/04/07 08:44:19;;;;;;;0.73;0.30;;;15.30;52.70;;;;;;2619242;51;21036;-82
2022/04/07 08:46:56;;;;;;;1.58;0.50;;;15.30;52.60;;;;;;2376417;52;20922;-81
2022/04/07 08:49:23;;;;;;;1.75;0.43;;;15.30;52.60;;;;;;2633115;51;20906;-81
2022/04/07 08:51:53;;;;;;;1.37;0.47;;;15.30;52.40;;;;;;2621487;51;20922;-83
2022/04/07 08:54:19;;;;;;;4.32;0.77;;;15.40;52.10;;;;;;2616229;51;22052;-81
2022/04/07 08:56:46;;;;;;;2.90;0.52;;;15.40;52.20;;;;;;2389409;52;21285;-81
2022/04/07 08:59:13;;;;;;;1.83;0.50;;;15.40;52.20;;;;;;2379795;53;21017;-81
2022/04/07 09:01:40;;;;;;;2.08;0.45;;;15.40;52.10;;;;;;2393966;53;22077;-80
2022/04/07 09:04:06;;;;;;;2.35;0.50;;;15.50;52.20;;;;;;2377557;52;20899;-80
2022/04/07 09:06:38;;;;;;;1.12;0.30;;;15.50;52.10;;;;;;2389608;53;22027;-81
2022/04/07 09:09:18;;;;;;;1.20;0.50;;;15.50;52.30;;;;;;2393723;52;20925;-82
2022/04/07 09:11:44;;;;;;;1.80;0.57;;;15.50;52.10;;;;;;2390205;53;20955;-80
2022/04/07 09:14:11;;;;;;;1.25;0.30;;;15.50;52.20;;;;;;2389754;53;21208;-81
2022/04/07 09:16:39;;;;;;;1.00;0.40;;;15.50;52.20;;;;;;2389618;52;20911;-82
2022/04/07 09:19:06;;;;;;;2.83;0.40;;;15.50;52.20;;;;;;2647079;52;21878;-80
2022/04/07 09:21:34;;;;;;;1.40;0.50;;;15.50;52.40;;;;;;2389710;53;20915;-81
2022/04/07 09:24:05;;;;;;;2.47;0.50;;;15.50;52.40;;;;;;2632516;51;20927;-81
2022/04/07 09:26:35;;;;;;;1.77;0.65;;;15.50;52.50;;;;;;2645659;51;21082;-81
2022/04/07 09:29:11;;;;;;;1.70;0.40;;;15.50;52.50;;;;;;2624303;51;22064;-80
2022/04/07 09:31:39;;;;;;;1.23;0.60;;;15.50;52.40;;;;;;2640110;51;20915;-83
2022/04/07 09:34:06;;;;;;;2.47;0.40;;;15.50;52.50;;;;;;2647128;52;20963;-82
2022/04/07 09:36:32;;;;;;;2.22;0.45;;;15.50;52.50;;;;;;2391716;53;22304;-81
2022/04/07 09:39:00;;;;;;;1.85;0.35;;;15.50;52.30;;;;;;2640493;51;21621;-80
2022/04/07 09:41:28;;;;;;;3.30;0.70;;;15.50;52.40;;;;;;2646024;51;21965;-81
2022/04/07 09:43:58;;;;;;;1.08;0.32;;;15.50;52.30;;;;;;2639692;51;22182;-81
2022/04/07 09:46:43;;;;;;;0.32;0.20;;;15.50;52.30;;;;;;2394456;53;20946;-81
2022/04/07 09:49:10;;;;;;;2.58;0.60;;;15.50;52.10;;;;;;2374212;53;20931;-82
2022/04/07 09:51:40;;;;;;;1.67;0.50;;;15.60;52.10;;;;;;2393629;52;20931;-81
2022/04/07 09:54:09;;;;;;;1.25;0.40;;;15.60;52.00;;;;;;2394635;52;20990;-83
2022/04/07 09:56:35;;;;;;;0.60;0.20;;;15.60;52.10;;;;;;2623892;51;21001;-81
2022/04/07 09:59:02;;;;;;;0.98;0.30;;;15.60;52.00;;;;;;2392697;53;21485;-83
2022/04/07 10:01:30;;;;;;;1.70;0.45;;;15.70;52.10;;;;;;2651657;52;20927;-82
2022/04/07 10:03:57;;;;;;;0.85;0.30;;;15.70;52.00;;;;;;2394802;52;20915;-81
2022/04/07 10:06:24;;;;;;;2.05;0.40;;;15.80;52.00;;;;;;2394463;53;20931;-80
2022/04/07 10:08:51;;;;;;;0.43;0.20;;;15.80;51.90;;;;;;2397279;52;21065;-84
2022/04/07 10:11:18;;;;;;;1.42;0.52;;;15.90;51.80;;;;;;2652244;52;21038;-82
2022/04/07 10:13:46;;;;;;;2.08;0.65;;;15.90;51.50;;;;;;2394594;53;21015;-81
2022/04/07 10:16:22;;;;;;;1.60;0.50;;;16.00;51.70;;;;;;2652128;52;21305;-81
2022/04/07 10:19:05;;;;;;;1.08;0.47;;;16.00;51.60;;;;;;2393121;52;21059;-82
2022/04/07 10:22:13;;;;;;;2.40;0.52;;;16.10;51.50;;;;;;2623224;51;20962;-81
2022/04/07 10:24:47;;;;;;;0.93;0.30;;;16.10;51.40;;;;;;2386771;52;20955;-82
2022/04/07 10:27:29;;;;;;;1.30;0.40;;;16.20;52.10;;;;;;2394543;53;20970;-81
2022/04/07 10:30:10;;;;;;;0.62;0.20;;;16.20;51.40;;;;;;2652508;52;21386;-82
2022/04/07 10:32:44;;;;;;;1.67;0.50;;;16.20;51.50;;;;;;2652025;52;21452;-83
2022/04/07 10:35:35;;;;;;;0.98;0.32;;;16.20;52.10;;;;;;2394718;52;21112;-80
2022/04/07 10:38:11;;;;;;;1.40;0.40;;;16.30;51.40;;;;;;2394513;52;21990;-80
2022/04/07 10:40:51;;;;;;;0.75;0.30;;;16.30;51.20;;;;;;2653693;52;20923;-81
2022/04/07 10:43:21;;;;;;;1.05;0.30;;;16.30;51.20;;;;;;2651755;52;20990;-83
2022/04/07 10:46:10;;;;;;;0.82;0.30;;;16.30;51.10;;;;;;2392517;52;20974;-82
2022/04/07 10:49:23;;;;;;;1.12;0.30;;;16.30;51.10;;;;;;2392679;52;21528;-80
2022/04/07 10:52:06;;;;;;;1.35;0.43;;;16.30;51.10;;;;;;2372832;53;20943;-81
2022/04/07 10:55:08;;;;;;;2.12;0.60;;;16.40;51.20;;;;;;2633886;51;21004;-80
2022/04/07 10:57:34;;;;;;;0.73;0.30;;;16.40;51.70;;;;;;2644686;51;20914;-78
2022/04/07 11:00:02;;;;;;;1.33;0.50;;;16.30;52.00;;;;;;2386964;52;20919;-79
2022/04/07 11:02:31;;;;;;;1.87;0.50;;;16.20;52.10;;;;;;2645598;52;20950;-79
2022/04/07 11:05:04;;;;;;;0.50;0.28;;;16.10;52.40;;;;;;2646220;52;20903;-79
2022/04/07 11:07:52;;;;;;;0.93;0.30;;;16.00;52.50;;;;;;2389028;52;20947;-79
2022/04/07 11:10:39;;;;;;;1.37;0.50;;;15.90;52.90;;;;;;2647548;52;21027;-78
2022/04/07 11:13:05;;;;;;;1.00;0.50;;;15.80;53.20;;;;;;2647526;52;20955;-80
2022/04/07 11:15:59;;;;;;;1.45;0.55;;;15.70;53.30;;;;;;2385752;52;21581;-79
2022/04/07 11:20:02;;;;;;;2.17;0.40;;;15.70;53.50;;;;;;2644985;52;21046;-80
2022/04/07 11:22:51;;;;;;;1.00;0.40;;;15.60;53.60;;;;;;2393193;52;20915;-80
2022/04/07 11:25:34;;;;;;;1.27;0.40;;;15.60;53.70;;;;;;2392371;53;20938;-80
2022/04/07 11:28:12;;;;;;;1.27;0.30;;;15.50;53.80;;;;;;2393250;53;20919;-80
2022/04/07 11:30:51;;;;;;;1.65;0.50;;;15.50;54.20;;;;;;2393413;55;21709;-80
2022/04/07 11:33:37;;;;;;;0.68;0.30;;;15.50;53.70;;;;;;2391778;55;21042;-80
2022/04/07 11:36:14;;;;;;;0.17;0.17;;;15.50;53.70;;;;;;2613303;51;20950;-80
2022/04/07 11:38:45;;;;;;;0.25;0.10;;;15.60;53.60;;;;;;2366757;53;21019;-81
2022/04/07 11:41:13;;;;;;;0.40;0.20;;;15.50;53.40;;;;;;2647523;52;20935;-80
2022/04/07 11:43:49;;;;;;;0.93;0.30;;;15.50;53.40;;;;;;2393436;53;20919;-80
2022/04/07 11:46:26;;;;;;;0.80;0.30;;;15.60;53.40;;;;;;2651366;52;21933;-81
2022/04/07 11:48:57;;;;;;;0.60;0.30;;;15.60;53.30;;;;;;2649198;52;21911;-82
2022/04/07 11:51:24;;;;;;;1.00;0.30;;;15.60;53.30;;;;;;2625201;51;20906;-80
2022/04/07 11:53:54;;;;;;;2.75;0.37;;;15.60;53.40;;;;;;2395951;53;20927;-79
2022/04/07 11:56:27;;;;;;;1.23;0.30;;;15.60;53.30;;;;;;2623628;51;21006;-81
2022/04/07 11:59:12;;;;;;;2.70;0.50;;;15.60;53.30;;;;;;2651385;52;22263;-81
2022/04/07 12:01:40;;;;;;;1.80;0.32;;;15.60;53.20;;;;;;2393919;53;21017;-84
2022/04/07 12:04:11;;;;;;;1.05;0.28;;;15.60;53.20;;;;;;2393546;53;20974;-82
2022/04/07 12:06:44;;;;;;;0.85;0.30;;;15.60;53.20;;;;;;2393612;52;20935;-80
2022/04/07 12:09:10;;;;;;;0.60;0.40;;;15.60;53.20;;;;;;2394030;53;20963;-80
2022/04/07 12:11:38;;;;;;;1.35;0.45;;;15.60;53.20;;;;;;2651680;52;20903;-80
2022/04/07 12:14:06;;;;;;;1.30;0.30;;;15.60;53.20;;;;;;2644257;52;20962;-81
2022/04/07 12:16:32;;;;;;;1.08;0.30;;;15.60;53.20;;;;;;2372541;52;21057;-80
2022/04/07 12:19:00;;;;;;;1.83;0.28;;;15.60;53.20;;;;;;2651340;52;21408;-80
2022/04/07 12:21:27;;;;;;;0.68;0.28;;;15.70;53.30;;;;;;2651961;52;21955;-80
2022/04/07 12:24:12;;;;;;;0.98;0.28;;;15.70;53.30;;;;;;2651457;52;20911;-80
2022/04/07 12:26:46;;;;;;;1.92;0.30;;;15.70;53.30;;;;;;2394272;53;21922;-80
2022/04/07 12:29:22;;;;;;;3.80;0.50;;;15.70;53.20;;;;;;2393752;52;20924;-80
2022/04/07 12:32:09;;;;;;;0.70;0.40;;;15.70;53.20;;;;;;2393715;53;21405;-80
2022/04/07 12:34:55;;;;;;;1.33;0.50;;;15.70;53.30;;;;;;2651436;52;21037;-79
2022/04/07 12:37:38;;;;;;;1.58;0.70;;;15.70;53.30;;;;;;2393730;52;21025;-80
2022/04/07 12:40:06;;;;;;;;;;;15.80;53.30;;;;;;2377654;52;22017;-81
2022/04/07 12:42:32;;;;;;;0.80;0.25;;;15.80;53.20;;;;;;2394203;53;20068;-80
2022/04/07 12:45:08;;;;;;;1.08;0.30;;;15.80;53.10;;;;;;2393589;52;21230;-80
2022/04/07 12:47:34;;;;;;;0.60;0.30;;;15.80;53.10;;;;;;2651780;52;20935;-80
2022/04/07 12:50:02;;;;;;;2.33;0.45;;;15.80;53.10;;;;;;2393329;53;21190;-80
2022/04/07 12:52:41;;;;;;;1.20;0.40;;;15.80;53.10;;;;;;2651412;52;20950;-81
2022/04/07 12:55:12;;;;;;;3.58;0.30;;;15.90;53.10;;;;;;2651134;52;22142;-80
2022/04/07 12:57:40;;;;;;;1.08;0.20;;;15.90;53.10;;;;;;2640816;51;20953;-80
2022/04/07 13:00:36;;;;;;;0.82;0.30;;;15.90;53.10;;;;;;2639174;51;20927;-80